createdAt,value
2022-12-09T00:03:45.553Z,99545.78
2022-12-09T00:07:47.550Z,99546.88
2022-12-09T00:11:49.292Z,99550.00
2022-12-09T00:15:51.229Z,99539.38
2022-12-09T00:20:43.040Z,99546.81
2022-12-09T00:24:44.751Z,99540.41
2022-12-09T00:28:46.588Z,99529.63
2022-12-09T00:33:39.021Z,99546.25
2022-12-09T00:43:16.898Z,99540.34
2022-12-09T00:47:18.801Z,99538.75
2022-12-09T00:51:22.824Z,99540.75
2022-12-09T00:55:24.676Z,99538.88
2022-12-09T00:59:26.513Z,99540.00
2022-12-09T01:03:28.386Z,99548.28
2022-12-09T01:07:30.492Z,99543.38
2022-12-09T01:11:32.043Z,99548.63
2022-12-09T01:15:34.288Z,99553.03
2022-12-09T01:19:36.009Z,99561.16
2022-12-09T01:23:37.808Z,99556.81
2022-12-09T01:27:39.493Z,99561.28
2022-12-09T01:31:41.577Z,99561.91
2022-12-09T01:35:43.392Z,99558.72
2022-12-09T01:39:45.212Z,99554.25
2022-12-09T01:44:18.174Z,99558.66
2022-12-09T01:48:28.369Z,99558.59
2022-12-09T01:52:29.963Z,99558.00
2022-12-09T01:56:36.109Z,99558.88
2022-12-09T02:00:42.308Z,99550.69
2022-12-09T02:04:48.055Z,99542.81
2022-12-09T02:08:51.672Z,99543.22
2022-12-09T02:13:15.061Z,99546.72
2022-12-09T02:17:49.029Z,99545.56
2022-12-09T02:21:58.981Z,99543.44
2022-12-09T02:26:32.304Z,99529.69
2022-12-09T02:31:23.781Z,99526.94
2022-12-09T02:35:35.480Z,99526.47
2022-12-09T02:39:51.806Z,99523.53
2022-12-09T02:44:01.961Z,99527.38
2022-12-09T02:48:09.307Z,99522.88
2022-12-09T02:52:12.258Z,99527.69
2022-12-09T02:56:15.722Z,99534.31
2022-12-09T03:00:17.786Z,99517.53
2022-12-09T03:04:24.184Z,99517.56
2022-12-09T03:08:38.978Z,99523.09
2022-12-09T03:12:48.130Z,99515.09
2022-12-09T03:16:57.038Z,99524.63
2022-12-09T03:21:26.231Z,99522.00
2022-12-09T03:26:17.971Z,99521.22
2022-12-09T03:30:19.902Z,99513.50
2022-12-09T03:34:26.240Z,99518.59
2022-12-09T03:38:32.625Z,99513.19
2022-12-09T03:42:39.711Z,99506.16
2022-12-09T03:46:41.768Z,99505.22
2022-12-09T03:50:54.824Z,99512.97
2022-12-09T03:55:01.683Z,99513.66
2022-12-09T03:59:08.549Z,99500.38
2022-12-09T04:03:13.304Z,99507.16
2022-12-09T04:07:14.907Z,99505.38
2022-12-09T04:11:16.577Z,99498.63
2022-12-09T04:15:18.213Z,99500.19
2022-12-09T04:19:19.854Z,99497.78
2022-12-09T04:23:21.692Z,99500.25
2022-12-09T04:27:23.321Z,99494.91
2022-12-09T04:31:25.150Z,99485.16
2022-12-09T04:35:27.799Z,99479.44
2022-12-09T04:39:30.897Z,99483.78
2022-12-09T04:43:32.440Z,99485.63
2022-12-09T04:47:34.449Z,99484.53
2022-12-09T04:51:39.892Z,99490.59
2022-12-09T04:55:42.076Z,99496.31
2022-12-09T04:59:44.060Z,99502.06
2022-12-09T05:03:51.817Z,99504.13
2022-12-09T05:07:54.158Z,99504.47
2022-12-09T05:11:58.836Z,99496.59
2022-12-09T05:16:02.389Z,99502.53
2022-12-09T05:20:05.208Z,99502.31
2022-12-09T05:24:07.631Z,99501.16
2022-12-09T05:28:43.056Z,99497.38
2022-12-09T05:33:34.995Z,99498.81
2022-12-09T05:37:40.126Z,99496.47
2022-12-09T05:41:43.430Z,99496.31
2022-12-09T05:45:45.541Z,99494.78
2022-12-09T05:49:47.634Z,99496.00
2022-12-09T05:53:49.411Z,99490.69
2022-12-09T05:57:51.647Z,99485.13
2022-12-09T06:01:54.516Z,99483.97
2022-12-09T06:05:56.213Z,99483.81
2022-12-09T06:10:48.132Z,99475.13
2022-12-09T06:15:39.771Z,99484.59
2022-12-09T06:19:41.685Z,99476.84
2022-12-09T06:36:01.765Z,99492.31
2022-12-09T06:40:04.617Z,99491.75
2022-12-09T06:44:06.817Z,99491.81
2022-12-09T06:48:09.290Z,99488.63
2022-12-09T06:52:11.123Z,99492.63
2022-12-09T06:56:14.343Z,99495.59
2022-12-09T07:00:16.512Z,99494.78
2022-12-09T07:04:18.867Z,99491.84
2022-12-09T07:08:20.594Z,99494.69
2022-12-09T07:12:22.592Z,99501.59
2022-12-09T07:16:25.024Z,99499.03
2022-12-09T07:20:27.538Z,99504.84
2022-12-09T07:24:31.534Z,99508.03
2022-12-09T07:28:39.327Z,99512.22
2022-12-09T07:32:41.383Z,99506.69
2022-12-09T07:36:43.372Z,99511.50
2022-12-09T07:40:45.496Z,99507.47
2022-12-09T07:44:51.004Z,99503.25
2022-12-09T07:48:53.626Z,99499.53
2022-12-09T07:52:55.546Z,99500.59
2022-12-09T07:56:57.232Z,99507.53
2022-12-09T08:01:08.893Z,99499.69
2022-12-09T08:05:11.373Z,99507.22
2022-12-09T08:09:14.570Z,99504.31
2022-12-09T08:13:17.246Z,99499.53
2022-12-09T08:17:19.839Z,99516.53
2022-12-09T08:21:27.954Z,99507.50
2022-12-09T08:25:56.678Z,99513.72
2022-12-09T08:30:11.399Z,99512.25
2022-12-09T08:34:14.749Z,99523.13
2022-12-09T08:38:16.802Z,99529.63
2022-12-09T08:42:18.969Z,99513.78
2022-12-09T08:46:20.578Z,99519.19
2022-12-09T08:50:22.697Z,99520.81
2022-12-09T08:54:24.889Z,99514.19
2022-12-09T08:58:27.198Z,99508.75
2022-12-09T09:02:29.982Z,99494.22
2022-12-09T09:11:51.799Z,99479.38
2022-12-09T09:16:23.756Z,99479.28
2022-12-09T09:20:25.758Z,99492.16
2022-12-09T09:24:27.691Z,99491.13
2022-12-09T09:28:31.649Z,99493.88
2022-12-09T09:32:33.835Z,99487.69
2022-12-09T09:36:36.204Z,99497.44
2022-12-09T09:40:58.948Z,99495.28
2022-12-09T09:45:22.719Z,99484.22
2022-12-09T09:50:07.470Z,99476.41
2022-12-09T09:54:14.036Z,99474.59
2022-12-09T09:58:36.649Z,99471.28
2022-12-09T10:03:10.737Z,99461.47
2022-12-09T10:07:51.905Z,99447.00
2022-12-09T10:12:13.308Z,99451.38
2022-12-09T10:16:35.646Z,99442.19
2022-12-09T10:20:58.210Z,99448.56
2022-12-09T10:25:30.109Z,99434.97
2022-12-09T10:29:47.089Z,99430.75
2022-12-09T10:33:57.542Z,99419.47
2022-12-09T10:38:40.361Z,99413.47
2022-12-09T10:43:10.234Z,99408.91
2022-12-09T10:47:27.145Z,99399.31
2022-12-09T10:51:34.045Z,99388.88
2022-12-09T10:56:01.832Z,99402.31
2022-12-09T11:00:42.646Z,99399.09
2022-12-09T11:05:22.879Z,99394.97
2022-12-09T11:09:43.791Z,99394.22
2022-12-09T11:13:45.613Z,99393.56
2022-12-09T11:19:02.451Z,99375.72
2022-12-09T11:23:13.235Z,99376.84
2022-12-09T11:28:16.540Z,99380.84
2022-12-09T11:32:18.179Z,99374.53
2022-12-09T11:36:29.782Z,99383.63
2022-12-09T11:40:32.703Z,99370.63
2022-12-09T11:44:35.978Z,99378.06
2022-12-09T11:48:43.524Z,99374.03
2022-12-09T11:53:10.438Z,99377.44
2022-12-09T11:57:41.597Z,99381.56
2022-12-09T12:02:14.678Z,99382.44
2022-12-09T12:06:25.493Z,99368.78
2022-12-09T12:10:51.230Z,99375.88
2022-12-09T12:14:56.486Z,99377.88
2022-12-09T12:19:30.254Z,99373.06
2022-12-09T12:24:16.638Z,99382.47
2022-12-09T12:29:05.509Z,99374.16
2022-12-09T12:34:24.460Z,99360.72
2022-12-09T12:39:07.847Z,99360.50
2022-12-09T12:43:53.014Z,99363.00
2022-12-09T12:48:34.953Z,99352.75
2022-12-09T12:53:34.672Z,99344.91
2022-12-09T12:58:15.062Z,99338.69
2022-12-09T13:03:07.498Z,99340.63
2022-12-09T13:08:01.827Z,99338.19
2022-12-09T13:12:13.781Z,99333.69
2022-12-09T13:16:41.799Z,99333.88
2022-12-09T13:21:34.696Z,99328.53
2022-12-09T13:26:10.652Z,99332.88
2022-12-09T13:30:43.932Z,99319.41
2022-12-09T13:35:14.881Z,99327.59
2022-12-09T13:39:41.992Z,99325.38
2022-12-09T13:43:43.577Z,99319.63
2022-12-09T13:47:47.729Z,99317.00
2022-12-09T13:51:52.928Z,99311.19
2022-12-09T13:55:56.130Z,99312.69
2022-12-09T14:00:24.891Z,99308.28
2022-12-09T14:05:08.081Z,99312.25
2022-12-09T14:09:45.307Z,99313.84
2022-12-09T14:13:46.807Z,99318.16
2022-12-09T14:17:48.322Z,99316.25
2022-12-09T14:22:28.844Z,99317.44
2022-12-09T14:26:54.563Z,99305.25
2022-12-09T14:31:37.065Z,99304.69
2022-12-09T14:35:49.231Z,99298.22
2022-12-09T14:40:49.520Z,99305.53
2022-12-09T14:45:28.849Z,99307.50
2022-12-09T14:49:30.528Z,99307.84
2022-12-09T14:53:54.266Z,99294.38
2022-12-09T14:58:00.655Z,99300.28
2022-12-09T15:02:04.166Z,99299.75
2022-12-09T15:06:29.615Z,99309.84
2022-12-09T15:10:32.315Z,99301.66
2022-12-09T15:15:13.917Z,99297.38
2022-12-09T15:24:05.556Z,99290.75
2022-12-09T15:28:15.379Z,99301.13
2022-12-09T15:32:27.754Z,99298.56
2022-12-09T15:36:41.968Z,99287.44
2022-12-09T15:41:22.218Z,99285.56
2022-12-09T15:45:44.205Z,99297.63
2022-12-09T15:49:57.383Z,99305.81
2022-12-09T15:54:06.788Z,99305.38
2022-12-09T15:58:14.729Z,99307.22
2022-12-09T16:02:31.303Z,99304.16
2022-12-09T16:06:43.795Z,99306.53
2022-12-09T16:10:48.673Z,99309.63
2022-12-09T16:14:50.350Z,99310.16
2022-12-09T16:18:51.954Z,99294.56
2022-12-09T16:22:53.557Z,99290.84
2022-12-09T16:26:55.401Z,99301.50
2022-12-09T16:31:02.818Z,99294.47
2022-12-09T16:35:26.790Z,99305.47
2022-12-09T16:39:33.378Z,99302.97
2022-12-09T16:43:35.556Z,99300.06
2022-12-09T16:47:37.159Z,99297.94
2022-12-09T16:51:39.574Z,99302.09
2022-12-09T16:55:52.633Z,99287.09
2022-12-09T16:59:54.262Z,99279.97
2022-12-09T17:04:13.909Z,99276.22
2022-12-09T17:08:15.471Z,99282.78
2022-12-09T17:12:17.316Z,99275.16
2022-12-09T17:16:22.016Z,99271.19
2022-12-09T17:20:23.986Z,99276.31
2022-12-09T17:24:25.554Z,99276.66
2022-12-09T17:29:17.508Z,99283.94
2022-12-09T17:33:44.800Z,99286.50
2022-12-09T17:38:03.168Z,99290.25
2022-12-09T17:42:33.130Z,99290.44
2022-12-09T17:47:08.658Z,99292.09
2022-12-09T17:51:21.143Z,99301.06
2022-12-09T17:55:23.380Z,99298.56
2022-12-09T17:59:25.318Z,99308.31
2022-12-09T18:03:54.399Z,99317.97
2022-12-09T18:07:49.526Z,99322.19
2022-12-09T18:11:59.761Z,99325.78
2022-12-09T18:16:01.743Z,99326.84
2022-12-09T18:20:04.197Z,99330.56
2022-12-09T18:24:06.439Z,99334.41
2022-12-09T18:28:33.783Z,99336.25
2022-12-09T18:32:36.368Z,99332.09
2022-12-09T18:36:38.142Z,99345.56
2022-12-09T18:41:01.045Z,99334.56
2022-12-09T18:45:02.882Z,99343.00
2022-12-09T18:49:11.707Z,99335.41
2022-12-09T18:53:13.452Z,99337.28
2022-12-09T18:57:15.469Z,99341.69
2022-12-09T19:01:21.266Z,99345.69
2022-12-09T19:05:22.834Z,99348.31
2022-12-09T19:10:14.427Z,99336.19
2022-12-09T19:14:18.388Z,99344.44
2022-12-09T19:18:19.933Z,99342.75
2022-12-09T19:22:21.746Z,99347.03
2022-12-09T19:26:27.201Z,99350.22
2022-12-09T19:30:29.038Z,99340.88
2022-12-09T19:34:31.421Z,99355.84
2022-12-09T19:38:33.047Z,99355.44
2022-12-09T19:43:37.444Z,99350.03
2022-12-09T19:48:13.319Z,99359.19
2022-12-09T19:52:16.167Z,99352.81
2022-12-09T19:56:19.380Z,99353.78
2022-12-09T20:01:12.681Z,99355.03
2022-12-09T20:05:14.696Z,99353.88
2022-12-09T20:09:23.869Z,99356.97
2022-12-09T20:13:31.484Z,99352.22
2022-12-09T20:17:34.017Z,99352.41
2022-12-09T20:21:37.552Z,99351.94
2022-12-09T20:25:39.803Z,99354.22
2022-12-09T20:29:41.446Z,99351.09
2022-12-09T20:34:17.063Z,99358.22
2022-12-09T20:44:20.401Z,99362.25
2022-12-09T20:48:22.191Z,99368.41
2022-12-09T20:53:13.340Z,99364.72
2022-12-09T20:57:15.162Z,99371.41
2022-12-09T21:01:25.841Z,99367.75
2022-12-09T21:06:17.524Z,99364.72
2022-12-09T21:16:21.931Z,99360.72
2022-12-09T21:20:23.696Z,99356.47
2022-12-09T21:25:41.455Z,99358.34
2022-12-09T21:30:33.349Z,99366.50
2022-12-09T21:34:35.769Z,99360.63
2022-12-09T21:38:38.492Z,99365.06
2022-12-09T21:42:40.493Z,99366.66
2022-12-09T21:46:42.401Z,99368.84
2022-12-09T21:50:44.464Z,99381.38
2022-12-09T21:54:52.310Z,99379.41
2022-12-09T21:58:58.799Z,99382.94
2022-12-09T22:03:00.283Z,99381.66
2022-12-09T22:07:53.011Z,99384.72
2022-12-09T22:12:45.541Z,99388.06
2022-12-09T22:16:47.451Z,99388.56
2022-12-09T22:21:22.996Z,99391.25
2022-12-09T22:25:10.693Z,99390.69
2022-12-09T22:29:16.561Z,99392.88
2022-12-09T22:33:18.014Z,99390.19
2022-12-09T22:37:42.455Z,99391.78
2022-12-09T22:41:43.835Z,99400.06
2022-12-09T22:45:45.575Z,99394.88
2022-12-09T22:49:47.382Z,99397.66
2022-12-09T22:53:51.232Z,99392.88
2022-12-09T22:57:52.985Z,99396.13
2022-12-09T23:01:54.712Z,99392.59
2022-12-09T23:05:56.354Z,99396.84
2022-12-09T23:09:57.892Z,99399.38
2022-12-09T23:14:00.262Z,99402.72
2022-12-09T23:18:05.710Z,99403.94
2022-12-09T23:22:09.931Z,99403.88
2022-12-09T23:26:15.798Z,99395.44
2022-12-09T23:30:17.678Z,99396.56
2022-12-09T23:34:19.752Z,99395.88
2022-12-09T23:38:21.245Z,99398.47
2022-12-09T23:42:22.918Z,99408.88
2022-12-09T23:46:27.082Z,99401.66
2022-12-09T23:50:28.715Z,99401.53
2022-12-09T23:54:30.443Z,99408.78
2022-12-09T23:58:35.560Z,99414.38
